Union Mills, North Carolina
Current Conditions -  °F | °C
As of 8:15 AM on Sunday 23 Nov 2014 (Local Time) from KFQD Reporting Station
Moderate Rain Moderate Rain  
Wind Chill: 40°   Ceiling: 1400
Heat Index: 40°   Visibility: 10mi
Dew Point: 36°   Wind: 0mph
Humidity: 83%   Direction: NA
Pressure: 30.19"   Gusts: NA
Location:  35.49°N, 81.96°W
Report Text: KFQD 231315Z AUTO 00000KT 10SM RA OVC014 05/02 A3019 RMK AO2 T00470021
Loading
Personal Weather Stations






























Interactive Weather Map New forecast layout! Learn more

10-Day Weather Forecast

Advertisements
Track Severe Weather on mobile